createdAt,value
2022-08-07T00:00:32.425Z,60.80
2022-08-07T00:01:44.084Z,60.71
2022-08-07T00:02:40.416Z,60.90
2022-08-07T00:03:36.892Z,60.80
2022-08-07T00:04:32.298Z,60.71
2022-08-07T00:05:32.183Z,60.90
2022-08-07T00:06:33.490Z,61.29
2022-08-07T00:07:40.403Z,61.10
2022-08-07T00:08:32.037Z,61.19
2022-08-07T00:09:35.626Z,61.48
2022-08-07T00:10:31.946Z,61.48
2022-08-07T00:11:33.023Z,61.00
2022-08-07T00:12:31.841Z,61.00
2022-08-07T00:13:31.794Z,61.29
2022-08-07T00:14:31.850Z,61.48
2022-08-07T00:15:38.290Z,61.45
2022-08-07T00:16:31.647Z,61.45
2022-08-07T00:17:35.204Z,60.97
2022-08-07T00:18:31.550Z,61.07
2022-08-07T00:20:00.644Z,61.38
2022-08-07T00:20:34.551Z,61.19
2022-08-07T00:21:55.397Z,61.45
2022-08-07T00:22:35.066Z,61.55
2022-08-07T00:23:31.308Z,62.06
2022-08-07T00:24:31.786Z,61.55
2022-08-07T00:25:37.491Z,61.55
2022-08-07T00:26:48.778Z,61.65
2022-08-07T00:27:51.845Z,61.65
2022-08-07T00:28:31.783Z,61.35
2022-08-07T00:29:31.454Z,61.55
2022-08-07T00:30:30.966Z,61.65
2022-08-07T00:31:37.846Z,61.35
2022-08-07T00:32:30.866Z,61.83
2022-08-07T00:33:32.815Z,61.65
2022-08-07T00:34:30.770Z,61.74
2022-08-07T00:35:30.724Z,61.83
2022-08-07T00:36:30.673Z,62.03
2022-08-07T00:37:30.635Z,61.74
2022-08-07T00:38:31.733Z,61.74
2022-08-07T00:39:30.569Z,61.65
2022-08-07T00:40:39.687Z,61.55
2022-08-07T00:41:30.429Z,62.12
2022-08-07T00:42:30.381Z,61.83
2022-08-07T00:44:02.096Z,61.93
2022-08-07T00:44:30.281Z,61.93
2022-08-07T00:45:30.234Z,62.12
2022-08-07T00:46:30.184Z,62.38
2022-08-07T00:48:07.570Z,62.22
2022-08-07T00:48:30.909Z,62.32
2022-08-07T00:50:21.528Z,62.22
2022-08-07T00:50:50.475Z,61.93
2022-08-07T00:51:57.422Z,62.51
2022-08-07T00:52:29.890Z,62.51
2022-08-07T00:53:38.415Z,62.41
2022-08-07T00:54:29.793Z,62.51
2022-08-07T00:56:03.431Z,62.70
2022-08-07T00:56:30.187Z,62.60
2022-08-07T00:57:29.914Z,62.90
2022-08-07T00:58:29.598Z,62.77
2022-08-07T00:59:35.491Z,62.77
2022-08-07T01:00:29.498Z,62.90
2022-08-07T01:01:29.511Z,63.06
2022-08-07T01:02:29.712Z,63.18
2022-08-07T01:03:56.734Z,62.90
2022-08-07T01:04:30.328Z,62.99
2022-08-07T01:05:29.251Z,63.09
2022-08-07T01:06:29.346Z,62.99
2022-08-07T01:07:30.851Z,63.15
2022-08-07T01:08:29.108Z,62.80
2022-08-07T01:09:51.130Z,62.70
2022-08-07T01:10:29.009Z,62.90
2022-08-07T01:12:09.280Z,62.70
2022-08-07T01:12:30.901Z,62.67
2022-08-07T01:13:28.858Z,62.67
2022-08-07T01:14:29.052Z,62.51
2022-08-07T01:15:36.088Z,63.06
2022-08-07T01:16:30.236Z,62.70
2022-08-07T01:17:28.964Z,62.32
2022-08-07T01:18:28.623Z,62.51
2022-08-07T01:19:32.446Z,62.19
2022-08-07T01:20:30.816Z,61.83
2022-08-07T01:21:28.573Z,61.90
2022-08-07T01:22:29.350Z,61.80
2022-08-07T01:23:38.412Z,62.38
2022-08-07T01:24:28.322Z,62.51
2022-08-07T01:25:40.615Z,62.38
2022-08-07T01:26:28.221Z,62.22
2022-08-07T01:27:32.416Z,62.41
2022-08-07T01:28:28.142Z,62.48
2022-08-07T01:29:31.407Z,62.51
2022-08-07T01:30:28.137Z,62.29
2022-08-07T01:31:29.965Z,62.57
2022-08-07T01:32:27.926Z,62.38
2022-08-07T01:33:30.117Z,62.38
2022-08-07T01:34:30.953Z,62.12
2022-08-07T01:35:53.198Z,62.32
2022-08-07T01:36:33.355Z,62.38
2022-08-07T01:37:27.920Z,62.29
2022-08-07T01:38:29.145Z,62.41
2022-08-07T01:39:40.402Z,62.29
2022-08-07T01:40:27.531Z,62.38
2022-08-07T01:41:27.481Z,62.38
2022-08-07T01:42:38.985Z,62.41
2022-08-07T01:43:27.385Z,62.09
2022-08-07T01:44:27.334Z,61.83
2022-08-07T01:45:37.157Z,62.12
2022-08-07T01:46:27.260Z,62.12
2022-08-07T01:48:19.605Z,62.12
2022-08-07T01:48:29.784Z,62.19
2022-08-07T01:49:27.087Z,61.90
2022-08-07T01:50:28.969Z,61.83
2022-08-07T01:52:01.071Z,61.80
2022-08-07T01:52:26.940Z,62.09
2022-08-07T01:54:09.684Z,61.80
2022-08-07T01:54:32.786Z,62.00
2022-08-07T01:55:26.791Z,61.71
2022-08-07T01:56:28.818Z,61.65
2022-08-07T01:57:26.691Z,61.52
2022-08-07T01:58:27.498Z,62.03
2022-08-07T01:59:31.168Z,61.93
2022-08-07T02:00:28.624Z,61.74
2022-08-07T02:01:59.897Z,62.03
2022-08-07T02:03:05.699Z,62.00
2022-08-07T02:03:42.885Z,62.03
2022-08-07T02:04:26.635Z,61.90
2022-08-07T02:05:47.918Z,61.93
2022-08-07T02:06:31.441Z,61.61
2022-08-07T02:07:36.114Z,61.61
2022-08-07T02:08:26.153Z,61.80
2022-08-07T02:09:52.063Z,61.42
2022-08-07T02:10:26.055Z,61.42
2022-08-07T02:11:30.854Z,61.74
2022-08-07T02:12:31.004Z,61.55
2022-08-07T02:13:56.480Z,61.42
2022-08-07T02:14:35.626Z,61.80
2022-08-07T02:15:28.058Z,61.52
2022-08-07T02:16:28.676Z,61.71
2022-08-07T02:17:31.483Z,61.42
2022-08-07T02:18:26.005Z,61.71
2022-08-07T02:20:07.137Z,61.45
2022-08-07T02:20:25.568Z,61.65
2022-08-07T02:21:25.518Z,61.55
2022-08-07T02:22:25.807Z,61.55
2022-08-07T02:23:25.410Z,61.22
2022-08-07T02:24:25.361Z,61.42
2022-08-07T02:26:10.963Z,61.74
2022-08-07T02:26:33.071Z,61.65
2022-08-07T02:27:25.271Z,61.35
2022-08-07T02:28:25.814Z,61.32
2022-08-07T02:29:25.117Z,61.13
2022-08-07T02:30:25.066Z,60.75
2022-08-07T02:31:29.198Z,60.75
2022-08-07T02:32:26.924Z,60.75
2022-08-07T02:33:24.916Z,60.75
2022-08-07T02:34:24.867Z,60.77
2022-08-07T02:36:28.988Z,60.77
2022-08-07T02:36:30.362Z,60.58
2022-08-07T02:37:24.718Z,60.39
2022-08-07T02:38:28.133Z,60.58
2022-08-07T02:39:43.755Z,60.65
2022-08-07T02:40:30.046Z,60.68
2022-08-07T02:41:24.557Z,60.49
2022-08-07T02:42:24.472Z,60.77
2022-08-07T02:43:24.423Z,60.75
2022-08-07T02:44:27.505Z,60.58
2022-08-07T02:45:58.838Z,61.16
2022-08-07T02:46:24.274Z,61.25
2022-08-07T02:47:24.224Z,61.25
2022-08-07T02:48:24.176Z,61.07
2022-08-07T02:49:56.227Z,61.35
2022-08-07T02:50:24.077Z,61.25
2022-08-07T02:51:41.971Z,61.45
2022-08-07T02:52:32.018Z,61.55
2022-08-07T02:53:23.926Z,61.74
2022-08-07T02:54:25.158Z,61.22
2022-08-07T02:55:28.405Z,61.90
2022-08-07T02:56:23.779Z,61.45
2022-08-07T02:57:23.731Z,61.52
2022-08-07T02:58:23.681Z,61.61
2022-08-07T02:59:23.981Z,61.65
2022-08-07T03:00:23.583Z,61.61
2022-08-07T03:01:35.823Z,61.93
2022-08-07T03:02:23.484Z,61.71
2022-08-07T03:03:23.512Z,61.71
2022-08-07T03:04:23.385Z,61.93
2022-08-07T03:05:23.338Z,61.93
2022-08-07T03:06:32.075Z,62.41
2022-08-07T03:07:58.920Z,62.38
2022-08-07T03:08:26.946Z,61.93
2022-08-07T03:09:43.628Z,62.09
2022-08-07T03:10:23.506Z,62.19
2022-08-07T03:11:25.304Z,62.51
2022-08-07T03:12:30.729Z,62.51
2022-08-07T03:13:22.939Z,62.77
2022-08-07T03:14:22.890Z,62.70
2022-08-07T03:15:30.246Z,62.67
2022-08-07T03:16:22.988Z,62.87
2022-08-07T03:17:22.743Z,62.77
2022-08-07T03:18:24.474Z,63.28
2022-08-07T03:19:22.644Z,63.54
2022-08-07T03:20:22.593Z,63.44
2022-08-07T03:21:22.626Z,63.64
2022-08-07T03:22:22.496Z,63.73
2022-08-07T03:23:22.445Z,63.44
2022-08-07T03:24:26.842Z,63.82
2022-08-07T03:25:22.345Z,63.44
2022-08-07T03:26:23.656Z,63.44
2022-08-07T03:27:30.775Z,63.64
2022-08-07T03:28:37.582Z,63.92
2022-08-07T03:29:22.149Z,64.69
2022-08-07T03:30:24.324Z,64.31
2022-08-07T03:31:24.485Z,64.59
2022-08-07T03:32:21.998Z,64.59
2022-08-07T03:33:21.949Z,64.50
2022-08-07T03:34:22.601Z,64.79
2022-08-07T03:35:26.059Z,64.89
2022-08-07T03:36:21.802Z,65.08
2022-08-07T03:37:21.752Z,65.08
2022-08-07T03:38:29.647Z,65.17
2022-08-07T03:39:45.790Z,64.79
2022-08-07T03:40:22.127Z,65.17
2022-08-07T03:41:41.971Z,65.27
2022-08-07T03:42:21.505Z,65.08
2022-08-07T03:43:21.457Z,66.04
2022-08-07T03:44:31.906Z,65.46
2022-08-07T03:45:30.737Z,65.56
2022-08-07T03:46:21.308Z,66.04
2022-08-07T03:47:21.262Z,66.42
2022-08-07T03:48:21.215Z,66.62
2022-08-07T03:49:21.159Z,66.24
2022-08-07T03:50:22.891Z,66.42
2022-08-07T03:51:21.065Z,65.75
2022-08-07T03:52:22.727Z,66.14
2022-08-07T03:53:20.959Z,66.14
2022-08-07T03:54:35.377Z,65.75
2022-08-07T03:55:20.861Z,65.94
2022-08-07T03:56:32.712Z,65.56
2022-08-07T03:58:33.841Z,66.01
2022-08-07T03:58:34.731Z,66.58
2022-08-07T03:59:21.014Z,66.78
2022-08-07T04:00:21.003Z,66.68
2022-08-07T04:01:22.432Z,66.68
2022-08-07T04:02:20.516Z,66.97
2022-08-07T04:03:20.467Z,66.78
2022-08-07T04:04:20.413Z,66.68
2022-08-07T04:05:20.364Z,66.97
2022-08-07T04:06:37.552Z,66.97
2022-08-07T04:07:22.862Z,66.78
2022-08-07T04:08:20.928Z,66.97
2022-08-07T04:09:22.940Z,66.68
2022-08-07T04:10:20.122Z,67.16
2022-08-07T04:12:24.613Z,67.55
2022-08-07T04:12:25.108Z,66.78
2022-08-07T04:13:19.966Z,67.93
2022-08-07T04:14:37.631Z,67.83
2022-08-07T04:15:19.867Z,67.35
2022-08-07T04:16:30.975Z,67.55
2022-08-07T04:17:21.562Z,67.65
2022-08-07T04:18:57.549Z,67.45
2022-08-07T04:19:19.875Z,68.41
2022-08-07T04:20:19.623Z,68.32
2022-08-07T04:21:19.570Z,67.93
2022-08-07T04:22:19.522Z,68.32
2022-08-07T04:23:19.660Z,68.22
2022-08-07T04:24:30.683Z,68.32
2022-08-07T04:25:19.372Z,68.32
2022-08-07T04:26:21.690Z,68.22
2022-08-07T04:27:20.404Z,68.41
2022-08-07T04:28:21.831Z,68.80
2022-08-07T04:29:19.170Z,68.32
2022-08-07T04:30:21.284Z,69.09
2022-08-07T04:31:19.781Z,68.99
2022-08-07T04:32:19.024Z,69.38
2022-08-07T04:33:18.972Z,69.09
2022-08-07T04:34:24.301Z,69.47
2022-08-07T04:35:18.874Z,69.57
2022-08-07T04:36:18.826Z,69.57
2022-08-07T04:37:20.563Z,69.47
2022-08-07T04:38:18.725Z,69.57
2022-08-07T04:39:25.447Z,69.47
2022-08-07T04:40:19.624Z,69.82
2022-08-07T04:41:19.279Z,69.95
2022-08-07T04:42:18.525Z,70.15
2022-08-07T04:43:18.475Z,70.34
2022-08-07T04:44:19.044Z,70.34
2022-08-07T04:45:22.736Z,70.92
2022-08-07T04:46:20.145Z,70.92
2022-08-07T04:47:57.280Z,71.01
2022-08-07T04:48:18.229Z,70.82
2022-08-07T04:49:24.627Z,70.43
2022-08-07T04:50:18.127Z,70.98
2022-08-07T04:51:18.412Z,71.20
2022-08-07T04:52:18.470Z,70.92
2022-08-07T04:53:39.980Z,71.59
2022-08-07T04:54:17.926Z,71.55
2022-08-07T04:58:11.626Z,71.78
2022-08-07T04:58:14.763Z,71.30
2022-08-07T04:58:15.997Z,71.78
2022-08-07T04:58:38.840Z,71.97
2022-08-07T05:00:11.430Z,71.97
2022-08-07T05:00:30.487Z,71.78
2022-08-07T05:01:18.374Z,71.88
2022-08-07T05:02:20.605Z,71.88
2022-08-07T05:04:00.352Z,71.97
2022-08-07T05:04:18.139Z,71.97
2022-08-07T05:05:53.569Z,71.69
2022-08-07T05:06:20.183Z,72.17
2022-08-07T05:07:20.711Z,72.36
2022-08-07T05:08:17.231Z,72.36
2022-08-07T05:09:17.179Z,71.97
2022-08-07T05:10:17.128Z,71.97
2022-08-07T05:11:19.445Z,72.17
2022-08-07T05:12:26.786Z,72.45
2022-08-07T05:14:52.257Z,72.36
2022-08-07T05:14:55.525Z,72.17
2022-08-07T05:15:21.685Z,72.55
2022-08-07T05:16:16.828Z,72.45
2022-08-07T05:17:17.504Z,72.94
2022-08-07T05:18:16.728Z,72.45
2022-08-07T05:19:16.680Z,73.03
2022-08-07T05:20:16.632Z,73.13
2022-08-07T05:21:25.264Z,73.03
2022-08-07T05:22:27.713Z,73.03
2022-08-07T05:23:16.508Z,73.22
2022-08-07T05:24:16.428Z,73.03
2022-08-07T05:25:25.669Z,73.71
2022-08-07T05:26:24.273Z,73.32
2022-08-07T05:28:03.523Z,73.51
2022-08-07T05:28:22.628Z,73.42
2022-08-07T05:29:16.183Z,73.32
2022-08-07T05:30:16.129Z,73.32
2022-08-07T05:31:16.756Z,73.32
2022-08-07T05:32:16.032Z,73.22
2022-08-07T05:33:15.980Z,73.32
2022-08-07T05:34:15.948Z,73.03
2022-08-07T05:35:15.881Z,73.61
2022-08-07T05:36:22.691Z,73.03
2022-08-07T05:37:15.781Z,73.32
2022-08-07T05:39:01.206Z,73.32
2022-08-07T05:40:06.571Z,73.61
2022-08-07T05:40:19.055Z,73.32
2022-08-07T05:41:16.681Z,73.51
2022-08-07T05:42:15.616Z,74.09
2022-08-07T05:43:15.482Z,74.19
2022-08-07T05:44:15.431Z,74.09
2022-08-07T05:45:28.278Z,74.38
2022-08-07T05:46:15.332Z,74.19
2022-08-07T05:47:17.987Z,74.38
2022-08-07T05:48:15.244Z,74.48
2022-08-07T05:49:15.182Z,74.19
2022-08-07T05:50:15.132Z,74.09
2022-08-07T05:51:15.083Z,74.38
2022-08-07T05:52:15.033Z,74.96
2022-08-07T05:54:13.264Z,74.96
2022-08-07T05:54:44.278Z,74.86
2022-08-07T05:55:14.921Z,75.19
2022-08-07T05:56:14.834Z,75.54
2022-08-07T05:57:14.783Z,75.67
2022-08-07T05:58:14.733Z,76.25
2022-08-07T05:59:14.684Z,75.57
2022-08-07T06:00:16.112Z,76.25
2022-08-07T06:01:14.584Z,75.76
2022-08-07T06:02:17.728Z,75.76
2022-08-07T06:03:14.571Z,75.67
2022-08-07T06:04:14.433Z,75.76
2022-08-07T06:05:15.407Z,75.76
2022-08-07T06:06:17.371Z,76.25
2022-08-07T06:07:22.970Z,75.96
2022-08-07T06:08:30.422Z,75.76
2022-08-07T06:09:14.186Z,76.53
2022-08-07T06:10:15.379Z,76.34
2022-08-07T06:11:14.085Z,76.34
2022-08-07T06:12:15.394Z,76.53
2022-08-07T06:13:15.663Z,76.53
2022-08-07T06:14:21.161Z,76.53
2022-08-07T06:15:15.998Z,76.15
2022-08-07T06:16:13.836Z,76.44
2022-08-07T06:17:13.786Z,76.25
2022-08-07T06:18:14.187Z,76.25
2022-08-07T06:19:17.953Z,76.63
2022-08-07T06:20:31.910Z,75.80
2022-08-07T06:22:15.814Z,75.99
2022-08-07T06:22:22.741Z,75.96
2022-08-07T06:23:46.663Z,75.57
2022-08-07T06:24:45.763Z,76.15
2022-08-07T06:25:13.388Z,75.71
2022-08-07T06:26:13.345Z,76.38
2022-08-07T06:27:13.290Z,76.18
2022-08-07T06:28:14.094Z,75.32
2022-08-07T06:29:13.206Z,76.09
2022-08-07T06:30:35.191Z,75.67
2022-08-07T06:31:13.096Z,75.99
2022-08-07T06:32:13.356Z,75.57
2022-08-07T06:33:15.972Z,75.80
2022-08-07T06:34:12.941Z,75.71
2022-08-07T06:35:17.774Z,75.71
2022-08-07T06:36:14.098Z,75.13
2022-08-07T06:37:20.431Z,75.42
2022-08-07T06:38:20.700Z,74.74
2022-08-07T06:40:16.978Z,74.71
2022-08-07T06:40:20.774Z,74.65
2022-08-07T06:41:12.893Z,74.74
2022-08-07T06:42:12.600Z,74.93
2022-08-07T06:43:21.593Z,74.84
2022-08-07T06:44:12.443Z,74.74
2022-08-07T06:45:12.399Z,75.32
2022-08-07T06:46:12.620Z,74.84
2022-08-07T06:47:15.588Z,74.65
2022-08-07T06:48:12.244Z,74.07
2022-08-07T06:49:12.197Z,73.49
2022-08-07T06:50:12.153Z,73.30
2022-08-07T06:51:12.097Z,73.30
2022-08-07T06:52:12.048Z,73.39
2022-08-07T06:53:49.359Z,73.39
2022-08-07T06:55:30.156Z,73.10
2022-08-07T06:55:34.100Z,73.30
2022-08-07T06:56:15.061Z,72.81
2022-08-07T06:57:11.801Z,72.81
2022-08-07T06:58:11.750Z,72.91
2022-08-07T07:00:12.088Z,72.24
2022-08-07T07:00:17.721Z,72.53
2022-08-07T07:01:11.677Z,72.24
2022-08-07T07:02:11.684Z,72.05
2022-08-07T07:03:14.570Z,72.33
2022-08-07T07:04:33.043Z,72.24
2022-08-07T07:05:12.865Z,72.08
2022-08-07T07:06:11.619Z,72.05
2022-08-07T07:07:58.413Z,71.89
2022-08-07T07:08:12.636Z,71.56
2022-08-07T07:09:11.204Z,71.41
2022-08-07T07:10:11.157Z,71.79
2022-08-07T07:11:14.103Z,70.92
2022-08-07T07:12:18.013Z,70.73
2022-08-07T07:13:11.007Z,70.83
2022-08-07T07:14:10.958Z,71.02
2022-08-07T07:15:23.901Z,70.92
2022-08-07T07:16:10.860Z,70.73
2022-08-07T07:17:15.982Z,71.22
2022-08-07T07:18:10.762Z,71.02
2022-08-07T07:19:19.023Z,70.64
2022-08-07T07:20:10.661Z,70.44
2022-08-07T07:21:13.447Z,70.64
2022-08-07T07:22:12.053Z,70.54
2022-08-07T07:24:10.323Z,70.35
2022-08-07T07:24:12.674Z,70.44
2022-08-07T07:26:30.591Z,70.35
2022-08-07T07:26:32.488Z,70.15
2022-08-07T07:27:10.317Z,70.06
2022-08-07T07:28:42.484Z,69.77
2022-08-07T07:29:39.276Z,69.48
2022-08-07T07:30:11.944Z,69.57
2022-08-07T07:31:10.118Z,69.77
2022-08-07T07:32:10.069Z,69.48
2022-08-07T07:33:11.462Z,69.19
2022-08-07T07:34:09.971Z,69.09
2022-08-07T07:35:09.925Z,69.57
2022-08-07T07:36:13.378Z,68.99
2022-08-07T07:37:22.203Z,68.99
2022-08-07T07:38:09.775Z,68.32
2022-08-07T07:39:09.831Z,68.61
2022-08-07T07:40:14.837Z,68.52
2022-08-07T07:41:09.626Z,68.55
2022-08-07T07:42:13.734Z,68.26
2022-08-07T07:43:15.186Z,68.52
2022-08-07T07:44:16.737Z,68.45
2022-08-07T07:45:09.431Z,68.42
2022-08-07T07:46:37.587Z,68.13
2022-08-07T07:47:22.884Z,67.78
2022-08-07T07:48:09.281Z,67.78
2022-08-07T07:50:33.286Z,67.00
2022-08-07T07:50:36.532Z,67.78
2022-08-07T07:51:09.133Z,66.91
2022-08-07T07:52:09.086Z,67.10
2022-08-07T07:53:13.674Z,67.10
2022-08-07T07:54:08.985Z,66.82
2022-08-07T07:55:08.950Z,66.91
2022-08-07T07:56:08.886Z,67.30
2022-08-07T07:57:08.890Z,67.10
2022-08-07T07:58:08.789Z,66.82
2022-08-07T07:59:08.738Z,67.10
2022-08-07T08:00:09.304Z,66.62
2022-08-07T08:02:03.375Z,66.52
2022-08-07T08:02:10.859Z,66.91
2022-08-07T08:03:08.809Z,66.14
2022-08-07T08:04:11.684Z,65.85
2022-08-07T08:05:11.534Z,65.85
2022-08-07T08:06:08.401Z,66.43
2022-08-07T08:07:08.345Z,66.24
2022-08-07T08:08:32.338Z,66.04
2022-08-07T08:09:08.254Z,65.75
2022-08-07T08:10:08.198Z,65.95
2022-08-07T08:11:09.337Z,66.43
2022-08-07T08:12:08.098Z,65.37
2022-08-07T08:13:10.550Z,65.17
2022-08-07T08:14:08.014Z,65.17
2022-08-07T08:15:07.952Z,65.27
2022-08-07T08:16:07.907Z,65.27
2022-08-07T08:17:55.362Z,65.17
2022-08-07T08:18:17.811Z,65.47
2022-08-07T08:19:09.939Z,65.47
2022-08-07T08:20:17.030Z,65.75
2022-08-07T08:21:07.702Z,65.59
2022-08-07T08:22:07.813Z,65.30
2022-08-07T08:23:08.489Z,65.50
2022-08-07T08:24:07.513Z,65.69
2022-08-07T08:25:24.835Z,65.59
2022-08-07T08:26:07.413Z,65.40
2022-08-07T08:27:09.507Z,65.50
2022-08-07T08:28:07.314Z,65.50
2022-08-07T08:29:08.285Z,65.78
2022-08-07T08:30:07.217Z,65.59
2022-08-07T08:31:07.165Z,65.30
2022-08-07T08:32:18.641Z,65.50
2022-08-07T08:33:15.313Z,65.40
2022-08-07T08:34:07.019Z,65.50
2022-08-07T08:35:06.983Z,65.11
2022-08-07T08:36:06.923Z,65.01
2022-08-07T08:37:09.922Z,65.11
2022-08-07T08:38:06.976Z,65.20
2022-08-07T08:39:06.846Z,65.01
2022-08-07T08:40:06.785Z,64.92
2022-08-07T08:41:06.674Z,65.01
2022-08-07T08:42:06.646Z,65.01
2022-08-07T08:43:06.579Z,64.72
2022-08-07T08:44:06.553Z,65.30
2022-08-07T08:45:06.605Z,65.30
2022-08-07T08:46:06.461Z,65.30
2022-08-07T08:47:06.381Z,65.11
2022-08-07T08:48:06.333Z,65.11
2022-08-07T08:49:06.284Z,65.20
2022-08-07T08:50:06.257Z,65.11
2022-08-07T08:51:14.651Z,64.63
2022-08-07T08:52:12.738Z,65.01
2022-08-07T08:53:06.088Z,65.01
2022-08-07T08:54:06.084Z,65.01
2022-08-07T08:55:07.706Z,65.20
2022-08-07T08:56:05.944Z,64.53
2022-08-07T08:57:05.932Z,64.72
2022-08-07T08:58:05.848Z,64.92
2022-08-07T08:59:06.376Z,64.63
2022-08-07T09:00:05.748Z,64.43
2022-08-07T09:01:15.207Z,64.82
2022-08-07T09:03:48.074Z,63.47
2022-08-07T09:04:47.262Z,63.85
2022-08-07T09:06:38.221Z,63.37
2022-08-07T09:07:46.437Z,63.37
2022-08-07T09:09:33.229Z,63.76
2022-08-07T09:10:29.922Z,63.79
2022-08-07T09:12:31.109Z,62.92
2022-08-07T09:13:35.332Z,63.21
2022-08-07T09:16:23.409Z,63.02
2022-08-07T09:16:24.535Z,63.37
2022-08-07T09:18:11.478Z,62.89
2022-08-07T09:19:07.313Z,63.09
2022-08-07T09:20:34.616Z,63.40
2022-08-07T09:21:05.740Z,63.09
2022-08-07T09:22:22.326Z,62.73
2022-08-07T09:24:31.056Z,63.02
2022-08-07T09:24:32.666Z,63.12
2022-08-07T09:25:11.905Z,62.73
2022-08-07T09:26:05.503Z,63.12
2022-08-07T09:27:09.089Z,63.21
2022-08-07T09:28:05.397Z,62.63
2022-08-07T09:30:06.696Z,62.34
2022-08-07T09:30:08.711Z,62.82
2022-08-07T09:31:05.258Z,62.54
2022-08-07T09:32:05.203Z,62.44
2022-08-07T09:33:16.444Z,62.54
2022-08-07T09:34:05.104Z,62.25
2022-08-07T09:36:02.710Z,62.44
2022-08-07T09:36:07.759Z,62.54
2022-08-07T09:37:04.960Z,62.44
2022-08-07T09:38:04.908Z,62.05
2022-08-07T09:39:11.489Z,61.77
2022-08-07T09:40:04.911Z,62.54
2022-08-07T09:41:04.762Z,62.34
2022-08-07T09:42:07.646Z,63.31
2022-08-07T09:43:04.664Z,63.21
2022-08-07T09:44:06.846Z,63.31
2022-08-07T09:47:23.619Z,62.92
2022-08-07T09:47:24.370Z,62.25
2022-08-07T09:47:50.787Z,62.63
2022-08-07T09:48:11.843Z,61.86
2022-08-07T09:50:02.566Z,61.86
2022-08-07T09:50:18.687Z,62.05
2022-08-07T09:51:04.425Z,61.67
2022-08-07T09:52:16.094Z,62.25
2022-08-07T09:53:04.177Z,62.15
2022-08-07T09:54:04.136Z,61.38
2022-08-07T09:55:04.079Z,61.77
2022-08-07T09:56:05.285Z,61.67
2022-08-07T09:57:03.982Z,61.67
2022-08-07T09:58:03.935Z,61.67
2022-08-07T09:59:07.617Z,61.57
2022-08-07T10:00:03.837Z,61.67
2022-08-07T10:01:03.786Z,61.19
2022-08-07T10:02:03.740Z,61.86
2022-08-07T10:03:07.772Z,61.77
2022-08-07T10:04:14.274Z,61.77
2022-08-07T10:05:12.692Z,61.60
2022-08-07T10:06:10.557Z,61.47
2022-08-07T10:07:03.495Z,61.67
2022-08-07T10:08:03.450Z,61.57
2022-08-07T10:09:03.407Z,61.47
2022-08-07T10:10:03.456Z,61.67
2022-08-07T10:11:17.297Z,61.38
2022-08-07T10:12:15.148Z,61.09
2022-08-07T10:13:03.686Z,61.67
2022-08-07T10:14:03.155Z,61.96
2022-08-07T10:15:03.167Z,61.67
2022-08-07T10:16:03.059Z,61.80
2022-08-07T10:17:03.033Z,61.41
2022-08-07T10:18:03.807Z,61.57
2022-08-07T10:19:02.913Z,61.19
2022-08-07T10:20:02.864Z,60.83
2022-08-07T10:21:02.832Z,61.12
2022-08-07T10:22:16.333Z,60.93
2022-08-07T10:23:02.717Z,60.54
2022-08-07T10:24:05.724Z,60.16
2022-08-07T10:25:02.689Z,60.64
2022-08-07T10:26:02.573Z,60.93
2022-08-07T10:27:02.524Z,60.25
2022-08-07T10:28:02.633Z,59.86
2022-08-07T10:29:02.428Z,59.67
2022-08-07T10:30:02.378Z,59.67
2022-08-07T10:31:02.329Z,59.58
2022-08-07T10:32:02.282Z,59.58
2022-08-07T10:33:02.233Z,59.77
2022-08-07T10:34:14.026Z,59.77
2022-08-07T10:35:02.137Z,59.58
2022-08-07T10:36:05.531Z,59.86
2022-08-07T10:37:03.980Z,59.67
2022-08-07T10:38:21.838Z,60.25
2022-08-07T10:39:01.984Z,59.96
2022-08-07T10:40:06.192Z,59.86
2022-08-07T10:41:01.845Z,59.58
2022-08-07T10:42:09.753Z,59.28
2022-08-07T10:43:01.748Z,59.58
2022-08-07T10:44:07.396Z,59.58
2022-08-07T10:45:01.691Z,59.38
2022-08-07T10:46:01.604Z,59.67
2022-08-07T10:47:01.564Z,59.38
2022-08-07T10:48:03.772Z,59.96
2022-08-07T10:49:01.461Z,60.16
2022-08-07T10:50:01.413Z,59.86
2022-08-07T10:51:01.359Z,59.86
2022-08-07T10:52:12.923Z,59.77
2022-08-07T10:53:07.973Z,59.67
2022-08-07T10:54:01.217Z,59.38
2022-08-07T10:55:07.932Z,59.67
2022-08-07T10:56:02.383Z,59.28
2022-08-07T10:57:01.073Z,59.58
2022-08-07T10:58:01.021Z,59.48
2022-08-07T10:59:00.972Z,59.09
2022-08-07T11:00:00.925Z,59.38
2022-08-07T11:01:00.920Z,59.86
2022-08-07T11:02:04.775Z,59.48
2022-08-07T11:03:00.913Z,59.77
2022-08-07T11:04:16.550Z,59.86
2022-08-07T11:05:04.209Z,59.86
2022-08-07T11:06:00.636Z,59.80
2022-08-07T11:07:00.584Z,59.58
2022-08-07T11:08:03.442Z,59.70
2022-08-07T11:09:00.487Z,59.58
2022-08-07T11:10:09.923Z,59.89
2022-08-07T11:11:00.399Z,59.38
2022-08-07T11:12:00.350Z,59.67
2022-08-07T11:13:01.951Z,59.60
2022-08-07T11:14:44.810Z,59.60
2022-08-07T11:15:01.066Z,59.22
2022-08-07T11:16:00.151Z,59.60
2022-08-07T11:17:02.223Z,59.70
2022-08-07T11:18:03.738Z,59.70
2022-08-07T11:19:00.004Z,59.89
2022-08-07T11:19:59.994Z,59.41
2022-08-07T11:20:59.908Z,59.60
2022-08-07T11:22:00.221Z,58.83
2022-08-07T11:22:59.816Z,59.31
2022-08-07T11:24:00.355Z,59.60
2022-08-07T11:24:59.714Z,59.51
2022-08-07T11:26:06.501Z,59.02
2022-08-07T11:27:01.208Z,58.73
2022-08-07T11:28:02.870Z,59.51
2022-08-07T11:28:59.522Z,59.51
2022-08-07T11:30:18.005Z,59.02
2022-08-07T11:30:59.426Z,58.45
2022-08-07T11:31:59.377Z,59.12
2022-08-07T11:32:59.326Z,59.02
2022-08-07T11:34:00.815Z,58.73
2022-08-07T11:34:59.229Z,59.12
2022-08-07T11:36:01.394Z,59.12
2022-08-07T11:37:00.256Z,59.31
2022-08-07T11:38:12.855Z,58.83
2022-08-07T11:38:59.115Z,58.83
2022-08-07T11:40:03.467Z,58.45
2022-08-07T11:40:58.941Z,58.93
2022-08-07T11:42:00.287Z,59.02
2022-08-07T11:42:59.087Z,58.15
2022-08-07T11:44:12.830Z,58.64
2022-08-07T11:44:58.747Z,58.64
2022-08-07T11:45:58.709Z,58.83
2022-08-07T11:46:58.651Z,58.73
2022-08-07T11:47:59.405Z,58.45
2022-08-07T11:49:50.512Z,58.64
2022-08-07T11:50:30.345Z,58.73
2022-08-07T11:50:58.487Z,58.93
2022-08-07T11:51:58.415Z,58.57
2022-08-07T11:52:58.362Z,59.12
2022-08-07T11:54:00.559Z,58.93
2022-08-07T11:54:58.265Z,58.76
2022-08-07T11:56:24.842Z,58.83
2022-08-07T11:56:58.170Z,58.67
2022-08-07T11:58:01.251Z,58.95
2022-08-07T11:58:58.814Z,58.54
2022-08-07T12:00:11.877Z,59.05
2022-08-07T12:01:02.663Z,59.15
2022-08-07T12:02:00.744Z,58.67
2022-08-07T12:02:57.914Z,58.28
2022-08-07T12:03:57.875Z,58.37
2022-08-07T12:04:57.795Z,58.09
2022-08-07T12:05:58.429Z,58.09
2022-08-07T12:07:03.938Z,58.18
2022-08-07T12:08:04.132Z,58.67
2022-08-07T12:08:57.593Z,58.47
2022-08-07T12:09:57.545Z,58.09
2022-08-07T12:11:08.172Z,57.60
2022-08-07T12:12:10.647Z,57.89
2022-08-07T12:12:57.401Z,58.18
2022-08-07T12:13:57.351Z,58.09
2022-08-07T12:15:01.214Z,57.89
2022-08-07T12:16:06.820Z,57.60
2022-08-07T12:16:57.207Z,57.79
2022-08-07T12:17:59.661Z,57.51
2022-08-07T12:18:57.110Z,57.79
2022-08-07T12:20:02.621Z,58.09
2022-08-07T12:20:57.018Z,57.70
2022-08-07T12:22:37.079Z,57.79
2022-08-07T12:22:58.866Z,57.70
2022-08-07T12:24:07.557Z,57.79
2022-08-07T12:25:02.256Z,57.89
2022-08-07T12:26:03.390Z,57.89
2022-08-07T12:26:56.728Z,57.70
2022-08-07T12:28:08.944Z,57.79
2022-08-07T12:28:56.636Z,57.60
2022-08-07T12:29:56.582Z,57.89
2022-08-07T12:30:56.535Z,57.79
2022-08-07T12:32:03.824Z,57.89
2022-08-07T12:32:56.440Z,57.60
2022-08-07T12:34:01.772Z,57.79
2022-08-07T12:34:56.582Z,57.60
2022-08-07T12:35:58.174Z,57.60
2022-08-07T12:36:56.253Z,57.51
2022-08-07T12:38:09.038Z,57.79
2022-08-07T12:38:57.581Z,57.60
2022-08-07T12:39:57.336Z,57.73
2022-08-07T12:40:56.076Z,57.60
2022-08-07T12:41:56.007Z,57.41
2022-08-07T12:42:57.243Z,57.63
2022-08-07T12:44:04.205Z,57.60
2022-08-07T12:44:55.864Z,57.31
2022-08-07T12:46:02.474Z,57.31
2022-08-07T12:46:55.768Z,57.70
2022-08-07T12:47:55.718Z,57.63
2022-08-07T12:48:55.673Z,57.92
2022-08-07T12:50:39.451Z,57.92
2022-08-07T12:50:55.577Z,57.63
2022-08-07T12:52:14.283Z,57.44
2022-08-07T12:52:55.480Z,57.82
2022-08-07T12:54:02.622Z,57.73
2022-08-07T12:54:57.314Z,57.73
2022-08-07T12:56:02.038Z,58.02
2022-08-07T12:56:55.356Z,57.05
2022-08-07T12:58:02.370Z,57.34